createdAt,value
2023-02-03T00:00:44.639Z,98783.66
2023-02-03T00:03:34.170Z,98790.69
2023-02-03T00:06:03.407Z,98782.34
2023-02-03T00:08:31.925Z,98786.00
2023-02-03T00:11:00.848Z,98781.41
2023-02-03T00:13:29.070Z,98784.69
2023-02-03T00:15:57.738Z,98785.75
2023-02-03T00:18:26.384Z,98793.44
2023-02-03T00:20:56.338Z,98783.59
2023-02-03T00:23:25.982Z,98795.06
2023-02-03T00:25:54.550Z,98795.06
2023-02-03T00:28:22.877Z,98802.38
2023-02-03T00:30:54.217Z,98800.50
2023-02-03T00:33:22.612Z,98801.44
2023-02-03T00:35:52.200Z,98815.75
2023-02-03T00:38:22.139Z,98810.41
2023-02-03T00:40:54.060Z,98806.81
2023-02-03T00:43:22.579Z,98819.16
2023-02-03T00:45:51.420Z,98823.28
2023-02-03T00:48:20.155Z,98816.69
2023-02-03T00:50:48.963Z,98817.06
2023-02-03T00:53:17.367Z,98814.53
2023-02-03T00:55:47.634Z,98811.91
2023-02-03T00:58:15.989Z,98815.41
2023-02-03T01:00:44.639Z,98806.41
2023-02-03T01:03:12.979Z,98802.75
2023-02-03T01:05:41.692Z,98809.84
2023-02-03T01:08:10.141Z,98799.56
2023-02-03T01:10:40.008Z,98807.81
2023-02-03T01:13:09.966Z,98798.47
2023-02-03T01:15:38.488Z,98805.44
2023-02-03T01:18:06.930Z,98800.38
2023-02-03T01:20:36.581Z,98795.94
2023-02-03T01:23:05.271Z,98794.97
2023-02-03T01:25:33.772Z,98801.53
2023-02-03T01:28:02.217Z,98806.06
2023-02-03T01:30:32.329Z,98797.69
2023-02-03T01:33:00.660Z,98796.72
2023-02-03T01:35:29.219Z,98798.88
2023-02-03T01:37:57.570Z,98797.31
2023-02-03T01:40:26.447Z,98798.84
2023-02-03T01:42:54.951Z,98801.81
2023-02-03T01:45:23.812Z,98800.97
2023-02-03T01:47:55.409Z,98797.44
2023-02-03T01:50:27.113Z,98792.16
2023-02-03T01:53:00.881Z,98785.19
2023-02-03T01:55:31.888Z,98783.66
2023-02-03T01:58:03.284Z,98781.97
2023-02-03T02:00:32.047Z,98779.25
2023-02-03T02:03:04.551Z,98776.09
2023-02-03T02:05:36.733Z,98783.66
2023-02-03T02:08:06.111Z,98772.66
2023-02-03T02:10:35.214Z,98771.94
2023-02-03T02:13:04.973Z,98774.56
2023-02-03T02:15:39.958Z,98775.84
2023-02-03T02:18:21.898Z,98762.63
2023-02-03T02:21:19.769Z,98761.22
2023-02-03T02:24:17.186Z,98757.09
2023-02-03T02:26:53.291Z,98752.72
2023-02-03T02:30:06.963Z,98758.84
2023-02-03T02:33:04.136Z,98755.78
2023-02-03T02:35:44.416Z,98759.94
2023-02-03T02:38:17.532Z,98753.31
2023-02-03T02:40:51.876Z,98751.31
2023-02-03T02:43:22.738Z,98749.16
2023-02-03T02:45:52.395Z,98738.91
2023-02-03T02:48:25.760Z,98730.31
2023-02-03T02:50:56.767Z,98726.59
2023-02-03T02:53:26.120Z,98724.28
2023-02-03T02:55:55.029Z,98724.75
2023-02-03T02:58:24.108Z,98722.50
2023-02-03T03:00:52.663Z,98729.78
2023-02-03T03:03:24.482Z,98731.09
2023-02-03T03:05:55.650Z,98726.44
2023-02-03T03:08:27.066Z,98729.44
2023-02-03T03:10:56.312Z,98741.19
2023-02-03T03:13:29.396Z,98740.66
2023-02-03T03:15:59.580Z,98753.13
2023-02-03T03:18:32.271Z,98762.16
2023-02-03T03:21:06.222Z,98751.00
2023-02-03T03:23:39.822Z,98753.88
2023-02-03T03:26:13.269Z,98738.59
2023-02-03T03:28:47.255Z,98738.69
2023-02-03T03:31:16.095Z,98740.13
2023-02-03T03:33:46.692Z,98738.47
2023-02-03T03:36:21.339Z,98740.78
2023-02-03T03:38:53.754Z,98733.34
2023-02-03T03:41:28.435Z,98732.19
2023-02-03T03:43:59.177Z,98720.16
2023-02-03T03:46:30.360Z,98709.69
2023-02-03T03:49:02.898Z,98700.75
2023-02-03T03:51:33.927Z,98691.53
2023-02-03T03:54:06.462Z,98685.88
2023-02-03T03:56:40.415Z,98686.47
2023-02-03T03:59:10.425Z,98681.84
2023-02-03T04:01:39.926Z,98688.31
2023-02-03T04:04:11.763Z,98688.59
2023-02-03T04:06:40.846Z,98687.19
2023-02-03T04:09:09.546Z,98686.47
2023-02-03T04:11:56.094Z,98690.94
2023-02-03T04:14:24.883Z,98697.44
2023-02-03T04:16:53.224Z,98695.78
2023-02-03T04:19:23.274Z,98692.97
2023-02-03T04:21:51.825Z,98679.31
2023-02-03T04:24:20.551Z,98669.97
2023-02-03T04:26:48.984Z,98677.44
2023-02-03T04:29:17.691Z,98665.66
2023-02-03T04:31:46.047Z,98670.13
2023-02-03T04:34:15.198Z,98672.44
2023-02-03T04:36:44.818Z,98667.06
2023-02-03T04:39:13.711Z,98660.94
2023-02-03T04:41:43.056Z,98655.34
2023-02-03T04:44:11.813Z,98661.97
2023-02-03T04:46:40.261Z,98660.69
2023-02-03T04:49:11.736Z,98659.09
2023-02-03T04:51:40.194Z,98648.94
2023-02-03T04:54:10.446Z,98641.16
2023-02-03T04:56:39.185Z,98646.34
2023-02-03T04:59:07.974Z,98637.81
2023-02-03T05:01:36.267Z,98634.16
2023-02-03T05:04:05.064Z,98630.31
2023-02-03T05:06:33.444Z,98628.16
2023-02-03T05:09:02.161Z,98616.41
2023-02-03T05:11:32.472Z,98602.56
2023-02-03T05:14:01.065Z,98606.38
2023-02-03T05:16:29.690Z,98600.50
2023-02-03T05:18:58.396Z,98576.63
2023-02-03T05:21:26.897Z,98577.66
2023-02-03T05:23:55.624Z,98578.84
2023-02-03T05:26:24.100Z,98575.91
2023-02-03T05:28:56.100Z,98569.25
2023-02-03T05:31:25.109Z,98569.78
2023-02-03T05:33:53.761Z,98568.34
2023-02-03T05:36:22.412Z,98563.06
2023-02-03T05:38:51.236Z,98557.28
2023-02-03T05:41:37.023Z,98553.31
2023-02-03T05:44:07.489Z,98558.19
2023-02-03T05:46:35.932Z,98557.56
2023-02-03T05:49:04.685Z,98557.78
2023-02-03T05:51:33.064Z,98558.16
2023-02-03T05:54:02.089Z,98548.13
2023-02-03T05:56:30.427Z,98532.38
2023-02-03T05:58:59.415Z,98542.63
2023-02-03T06:01:29.244Z,98520.31
2023-02-03T06:03:58.068Z,98532.16
2023-02-03T06:06:27.472Z,98529.56
2023-02-03T06:08:57.193Z,98527.53
2023-02-03T06:11:25.598Z,98522.13
2023-02-03T06:13:54.263Z,98518.72
2023-02-03T06:16:25.077Z,98519.66
2023-02-03T06:18:55.824Z,98524.53
2023-02-03T06:21:24.258Z,98516.13
2023-02-03T06:23:53.131Z,98506.97
2023-02-03T06:26:21.683Z,98504.94
2023-02-03T06:28:50.771Z,98508.88
2023-02-03T06:31:19.242Z,98505.31
2023-02-03T06:33:47.895Z,98503.91
2023-02-03T06:36:17.748Z,98494.28
2023-02-03T06:38:46.301Z,98489.69
2023-02-03T06:41:15.098Z,98487.78
2023-02-03T06:43:43.911Z,98486.06
2023-02-03T06:46:12.751Z,98481.81
2023-02-03T06:48:41.577Z,98478.66
2023-02-03T06:51:09.920Z,98479.69
2023-02-03T06:53:40.263Z,98480.34
2023-02-03T06:56:08.978Z,98472.78
2023-02-03T06:58:38.806Z,98469.13
2023-02-03T07:01:07.344Z,98466.03
2023-02-03T07:03:36.012Z,98461.72
2023-02-03T07:06:05.291Z,98460.41
2023-02-03T07:08:34.364Z,98452.66
2023-02-03T07:11:04.212Z,98449.22
2023-02-03T07:13:32.977Z,98447.03
2023-02-03T07:16:01.617Z,98441.03
2023-02-03T07:18:46.268Z,98436.25
2023-02-03T07:21:15.866Z,98437.19
2023-02-03T07:23:44.862Z,98424.69
2023-02-03T07:26:14.875Z,98426.88
2023-02-03T07:28:43.498Z,98412.72
2023-02-03T07:31:12.052Z,98405.66
2023-02-03T07:33:40.765Z,98409.88
2023-02-03T07:36:10.041Z,98415.13
2023-02-03T07:38:39.238Z,98414.22
2023-02-03T07:41:07.923Z,98410.72
2023-02-03T07:43:37.896Z,98402.91
2023-02-03T07:46:06.375Z,98400.63
2023-02-03T07:48:35.287Z,98395.50
2023-02-03T07:51:03.542Z,98385.22
2023-02-03T07:53:32.298Z,98370.22
2023-02-03T07:56:02.214Z,98373.91
2023-02-03T07:58:31.272Z,98357.47
2023-02-03T08:01:01.693Z,98361.69
2023-02-03T08:03:30.532Z,98358.41
2023-02-03T08:05:59.081Z,98356.34
2023-02-03T08:08:27.739Z,98351.50
2023-02-03T08:10:56.758Z,98347.88
2023-02-03T08:13:25.430Z,98345.34
2023-02-03T08:15:53.938Z,98342.84
2023-02-03T08:18:24.314Z,98332.47
2023-02-03T08:20:52.685Z,98329.34
2023-02-03T08:23:21.530Z,98324.16
2023-02-03T08:25:52.561Z,98325.16
2023-02-03T08:28:21.699Z,98331.31
2023-02-03T08:30:50.472Z,98324.16
2023-02-03T08:33:19.089Z,98318.72
2023-02-03T08:35:50.338Z,98311.09
2023-02-03T08:38:19.155Z,98314.31
2023-02-03T08:40:47.501Z,98303.78
2023-02-03T08:43:16.532Z,98301.00
2023-02-03T08:45:44.934Z,98310.53
2023-02-03T08:48:13.637Z,98293.16
2023-02-03T08:50:44.594Z,98284.19
2023-02-03T08:53:14.534Z,98287.16
2023-02-03T08:55:42.939Z,98285.22
2023-02-03T08:58:11.646Z,98287.31
2023-02-03T09:00:40.167Z,98290.72
2023-02-03T09:03:08.818Z,98288.41
2023-02-03T09:05:37.794Z,98274.19
2023-02-03T09:08:07.198Z,98273.69
2023-02-03T09:10:37.615Z,98262.34
2023-02-03T09:13:06.111Z,98266.47
2023-02-03T09:15:34.402Z,98258.72
2023-02-03T09:18:03.327Z,98247.34
2023-02-03T09:20:31.984Z,98237.44
2023-02-03T09:23:01.138Z,98230.16
2023-02-03T09:25:29.376Z,98229.66
2023-02-03T09:28:00.053Z,98218.94
2023-02-03T09:30:28.716Z,98225.25
2023-02-03T09:32:59.051Z,98218.81
2023-02-03T09:35:29.544Z,98199.19
2023-02-03T09:38:00.813Z,98194.00
2023-02-03T09:40:33.349Z,98172.81
2023-02-03T09:43:15.550Z,98167.91
2023-02-03T09:45:44.229Z,98167.53
2023-02-03T09:48:15.672Z,98153.72
2023-02-03T09:50:45.092Z,98153.22
2023-02-03T09:53:23.142Z,98146.50
2023-02-03T09:55:51.934Z,98129.44
2023-02-03T09:58:23.281Z,98114.06
2023-02-03T10:00:52.922Z,98098.88
2023-02-03T10:03:27.775Z,98099.28
2023-02-03T10:06:19.740Z,98094.97
2023-02-03T10:08:58.297Z,98079.69
2023-02-03T10:11:42.409Z,98066.66
2023-02-03T10:14:24.325Z,98063.03
2023-02-03T10:17:04.178Z,98045.59
2023-02-03T10:19:40.420Z,98050.66
2023-02-03T10:22:14.368Z,98035.53
2023-02-03T10:24:46.592Z,98023.34
2023-02-03T10:27:19.123Z,98019.69
2023-02-03T10:29:54.609Z,98017.00
2023-02-03T10:32:25.767Z,98014.63
2023-02-03T10:34:54.541Z,98007.22
2023-02-03T10:37:30.035Z,97993.47
2023-02-03T10:40:00.357Z,97978.09
2023-02-03T10:42:50.368Z,97977.31
2023-02-03T10:45:21.606Z,97972.47
2023-02-03T10:47:52.807Z,97967.97
2023-02-03T10:50:23.931Z,97957.66
2023-02-03T10:53:23.467Z,97949.50
2023-02-03T10:56:00.703Z,97936.03
2023-02-03T10:58:31.379Z,97929.72
2023-02-03T11:01:09.140Z,97915.72
2023-02-03T11:03:39.309Z,97917.56
2023-02-03T11:06:11.077Z,97902.72
2023-02-03T11:08:40.931Z,97899.69
2023-02-03T11:11:10.859Z,97891.16
2023-02-03T11:13:39.487Z,97875.50
2023-02-03T11:16:15.467Z,97873.53
2023-02-03T11:18:48.283Z,97866.53
2023-02-03T11:21:19.143Z,97855.09
2023-02-03T11:23:50.773Z,97845.88
2023-02-03T11:26:21.740Z,97840.56
2023-02-03T11:28:52.439Z,97813.91
2023-02-03T11:31:25.528Z,97809.34
2023-02-03T11:33:57.067Z,97800.53
2023-02-03T11:36:28.494Z,97798.41
2023-02-03T11:39:20.714Z,97782.00
2023-02-03T11:41:50.137Z,97772.91
2023-02-03T11:44:21.555Z,97756.22
2023-02-03T11:46:54.782Z,97744.09
2023-02-03T11:49:56.553Z,97755.47
2023-02-03T11:52:38.070Z,97737.00
2023-02-03T11:55:14.859Z,97734.75
2023-02-03T11:57:48.416Z,97723.47
2023-02-03T12:00:29.280Z,97704.56
2023-02-03T12:03:22.462Z,97697.44
2023-02-03T12:06:02.764Z,97680.00
2023-02-03T12:08:45.070Z,97687.66
2023-02-03T12:11:24.134Z,97673.69
2023-02-03T12:14:02.371Z,97658.59
2023-02-03T12:16:57.700Z,97654.22
2023-02-03T12:19:36.361Z,97651.84
2023-02-03T12:22:10.608Z,97644.28
2023-02-03T12:24:46.613Z,97639.41
2023-02-03T12:27:26.670Z,97620.19
2023-02-03T12:29:59.287Z,97613.91
2023-02-03T12:32:33.695Z,97606.47
2023-02-03T12:35:15.281Z,97609.69
2023-02-03T12:37:45.429Z,97588.75
2023-02-03T12:40:17.745Z,97579.13
2023-02-03T12:42:49.792Z,97584.69
2023-02-03T12:45:21.161Z,97564.44
2023-02-03T12:47:53.211Z,97562.59
2023-02-03T12:50:26.068Z,97554.19
2023-02-03T12:52:57.278Z,97553.88
2023-02-03T12:55:32.572Z,97555.81
2023-02-03T12:58:04.305Z,97526.66
2023-02-03T13:00:40.406Z,97521.91
2023-02-03T13:03:20.286Z,97533.03
2023-02-03T13:05:55.532Z,97528.94
2023-02-03T13:08:29.829Z,97522.34
2023-02-03T13:11:05.472Z,97518.38
2023-02-03T13:13:39.172Z,97512.88
2023-02-03T13:16:09.177Z,97499.56
2023-02-03T13:18:40.523Z,97492.84
2023-02-03T13:21:12.063Z,97480.16
2023-02-03T13:23:43.557Z,97466.91
2023-02-03T13:26:30.853Z,97456.31
2023-02-03T13:29:12.494Z,97456.75
2023-02-03T13:31:49.599Z,97439.88
2023-02-03T13:34:36.758Z,97439.97
2023-02-03T13:37:15.323Z,97432.81
2023-02-03T13:40:18.500Z,97422.09
2023-02-03T13:42:49.984Z,97415.00
2023-02-03T13:45:27.035Z,97395.50
2023-02-03T13:47:58.242Z,97408.25
2023-02-03T13:50:29.270Z,97406.38
2023-02-03T13:53:01.766Z,97395.25
2023-02-03T13:55:34.523Z,97388.22
2023-02-03T13:58:03.309Z,97380.66
2023-02-03T14:01:20.792Z,97380.94
2023-02-03T14:03:50.379Z,97363.53
2023-02-03T14:06:59.638Z,97365.50
2023-02-03T14:09:43.353Z,97357.84
2023-02-03T14:12:37.262Z,97352.16
2023-02-03T14:15:21.221Z,97339.44
2023-02-03T14:18:02.128Z,97319.94
2023-02-03T14:20:52.808Z,97317.50
2023-02-03T14:23:26.719Z,97319.13
2023-02-03T14:25:59.903Z,97315.31
2023-02-03T14:28:32.898Z,97307.72
2023-02-03T14:31:12.712Z,97302.84
2023-02-03T14:34:18.134Z,97270.84
2023-02-03T14:36:53.145Z,97297.72
2023-02-03T14:39:44.472Z,97296.91
2023-02-03T14:42:21.531Z,97284.69
2023-02-03T14:45:00.013Z,97283.31
2023-02-03T14:47:42.403Z,97282.25
2023-02-03T14:50:21.721Z,97286.56
2023-02-03T14:53:02.668Z,97291.47
2023-02-03T14:55:46.439Z,97302.84
2023-02-03T14:58:25.111Z,97308.28
2023-02-03T15:00:55.146Z,97309.91
2023-02-03T15:03:31.427Z,97308.00
2023-02-03T15:06:03.508Z,97301.25
2023-02-03T15:08:36.141Z,97305.03
2023-02-03T15:11:27.380Z,97312.63
2023-02-03T15:13:59.119Z,97309.09
2023-02-03T15:16:28.101Z,97309.63
2023-02-03T15:18:59.970Z,97327.81
2023-02-03T15:21:28.249Z,97328.63
2023-02-03T15:23:57.070Z,97324.00
2023-02-03T15:26:27.157Z,97319.66
2023-02-03T15:28:58.952Z,97310.94
2023-02-03T15:31:34.034Z,97303.81
2023-02-03T15:34:07.997Z,97284.00
2023-02-03T15:36:43.373Z,97298.88
2023-02-03T15:39:20.129Z,97296.19
2023-02-03T15:41:51.025Z,97287.56
2023-02-03T15:44:27.639Z,97299.97
2023-02-03T15:46:56.378Z,97306.81
2023-02-03T15:49:28.911Z,97315.38
2023-02-03T15:52:00.243Z,97303.47
2023-02-03T15:54:40.582Z,97292.38
2023-02-03T15:57:11.726Z,97311.69
2023-02-03T15:59:43.569Z,97323.63
2023-02-03T16:02:17.974Z,97311.31
2023-02-03T16:04:46.987Z,97317.69
2023-02-03T16:07:18.584Z,97323.19
2023-02-03T16:09:47.477Z,97327.84
2023-02-03T16:12:20.512Z,97322.81
2023-02-03T16:14:51.103Z,97324.72
2023-02-03T16:17:28.954Z,97337.59
2023-02-03T16:20:23.132Z,97340.28
2023-02-03T16:23:13.467Z,97341.19
2023-02-03T16:25:42.370Z,97341.03
2023-02-03T16:28:34.990Z,97347.19
2023-02-03T16:31:29.735Z,97351.88
2023-02-03T16:34:15.677Z,97344.97
2023-02-03T16:37:02.658Z,97349.91
2023-02-03T16:39:49.043Z,97346.75
2023-02-03T16:42:36.903Z,97331.00
2023-02-03T16:45:25.437Z,97350.34
2023-02-03T16:48:13.515Z,97360.09
2023-02-03T16:51:08.330Z,97347.75
2023-02-03T16:53:37.439Z,97358.53
2023-02-03T16:56:06.499Z,97356.47
2023-02-03T16:58:35.782Z,97360.84
2023-02-03T17:01:05.776Z,97367.69
2023-02-03T17:03:37.389Z,97367.00
2023-02-03T17:06:07.787Z,97373.00
2023-02-03T17:08:37.202Z,97369.53
2023-02-03T17:11:07.604Z,97368.44
2023-02-03T17:13:36.948Z,97375.38
2023-02-03T17:16:10.910Z,97367.47
2023-02-03T17:18:41.243Z,97375.81
2023-02-03T17:21:11.249Z,97375.00
2023-02-03T17:23:40.297Z,97375.94
2023-02-03T17:26:08.808Z,97381.88
2023-02-03T17:28:37.531Z,97386.81
2023-02-03T17:31:08.017Z,97389.81
2023-02-03T17:33:36.735Z,97388.69
2023-02-03T17:36:09.933Z,97388.66
2023-02-03T17:55:21.329Z,97410.78
2023-02-03T17:57:49.603Z,97422.00
2023-02-03T18:00:19.109Z,97427.88
2023-02-03T18:02:50.991Z,97436.91
2023-02-03T18:05:20.445Z,97437.97
2023-02-03T18:07:50.466Z,97441.63
2023-02-03T18:10:19.424Z,97443.72
2023-02-03T18:12:47.875Z,97437.63
2023-02-03T18:15:16.862Z,97452.34
2023-02-03T18:17:45.248Z,97440.06
2023-02-03T18:20:14.910Z,97441.41
2023-02-03T18:22:46.112Z,97455.50
2023-02-03T18:25:17.381Z,97453.34
2023-02-03T18:27:45.908Z,97461.19
2023-02-03T18:30:18.006Z,97463.25
2023-02-03T18:32:47.454Z,97477.47
2023-02-03T18:35:17.461Z,97464.19
2023-02-03T18:37:46.139Z,97471.53
2023-02-03T18:40:16.990Z,97468.41
2023-02-03T18:42:45.560Z,97470.13
2023-02-03T18:45:14.425Z,97477.22
2023-02-03T18:47:42.817Z,97474.78
2023-02-03T18:50:12.013Z,97473.16
2023-02-03T18:52:40.704Z,97476.72
2023-02-03T18:55:10.431Z,97479.63
2023-02-03T18:57:40.403Z,97481.38
2023-02-03T19:00:10.871Z,97489.88
2023-02-03T19:02:39.288Z,97493.31
2023-02-03T19:05:10.088Z,97495.91
2023-02-03T19:07:38.931Z,97491.31
2023-02-03T19:10:08.125Z,97477.97
2023-02-03T19:12:36.407Z,97484.31
2023-02-03T19:15:08.814Z,97485.31
2023-02-03T19:17:38.274Z,97484.84
2023-02-03T19:20:07.954Z,97490.31
2023-02-03T19:22:36.354Z,97491.44
2023-02-03T19:25:05.278Z,97486.03
2023-02-03T19:27:33.689Z,97490.94
2023-02-03T19:30:02.465Z,97491.81
2023-02-03T19:32:32.403Z,97467.84
2023-02-03T19:35:01.197Z,97494.06
2023-02-03T19:37:29.743Z,97491.06
2023-02-03T19:39:58.547Z,97498.13
2023-02-03T19:42:27.175Z,97487.78
2023-02-03T19:44:56.597Z,97482.94
2023-02-03T19:47:25.187Z,97494.31
2023-02-03T19:49:55.268Z,97490.94
2023-02-03T19:52:23.644Z,97482.38
2023-02-03T19:54:54.120Z,97478.59
2023-02-03T19:57:22.541Z,97474.50
2023-02-03T19:59:51.277Z,97488.66
2023-02-03T20:02:20.240Z,97483.19
2023-02-03T20:04:50.283Z,97488.34
2023-02-03T20:07:20.313Z,97493.94
2023-02-03T20:09:49.385Z,97499.78
2023-02-03T20:12:18.100Z,97494.06
2023-02-03T20:14:46.648Z,97490.53
2023-02-03T20:17:15.369Z,97480.22
2023-02-03T20:19:44.097Z,97476.31
2023-02-03T20:22:12.624Z,97479.34
2023-02-03T20:24:42.726Z,97483.00
2023-02-03T20:27:11.082Z,97471.75
2023-02-03T20:29:40.019Z,97467.59
2023-02-03T20:32:09.496Z,97473.06
2023-02-03T20:34:38.460Z,97469.47
2023-02-03T20:37:08.113Z,97466.81
2023-02-03T20:39:36.931Z,97463.75
2023-02-03T20:42:12.602Z,97471.88
2023-02-03T20:44:42.400Z,97462.59
2023-02-03T20:47:12.100Z,97462.38
2023-02-03T20:49:40.943Z,97468.00
2023-02-03T20:52:14.537Z,97459.47
2023-02-03T20:54:43.382Z,97470.72
2023-02-03T20:57:15.027Z,97462.72
2023-02-03T20:59:44.766Z,97460.41
2023-02-03T21:02:23.192Z,97459.56
2023-02-03T21:05:00.544Z,97456.34
2023-02-03T21:07:31.358Z,97463.72
2023-02-03T21:10:01.701Z,97471.19
2023-02-03T21:12:31.725Z,97465.63
2023-02-03T21:15:00.323Z,97477.59
2023-02-03T21:17:28.707Z,97478.88
2023-02-03T21:19:57.774Z,97490.19
2023-02-03T21:22:27.677Z,97478.16
2023-02-03T21:24:57.763Z,97476.75
2023-02-03T21:27:32.534Z,97473.88
2023-02-03T21:30:03.245Z,97478.53
2023-02-03T21:32:36.225Z,97467.63
2023-02-03T21:35:18.953Z,97472.25
2023-02-03T21:37:47.764Z,97473.94
2023-02-03T21:40:27.355Z,97465.06
2023-02-03T21:42:58.014Z,97463.56
2023-02-03T21:45:36.761Z,97470.22
2023-02-03T21:48:39.882Z,97468.03
2023-02-03T21:51:16.283Z,97460.53
2023-02-03T21:53:49.330Z,97475.78
2023-02-03T21:56:20.074Z,97478.00
2023-02-03T21:58:50.926Z,97469.22
2023-02-03T22:01:22.965Z,97473.34
2023-02-03T22:03:53.195Z,97472.25
2023-02-03T22:06:24.569Z,97458.09
2023-02-03T22:08:54.547Z,97463.41
2023-02-03T22:11:24.115Z,97463.38
2023-02-03T22:13:54.136Z,97467.59
2023-02-03T22:16:22.937Z,97470.50
2023-02-03T22:18:51.651Z,97461.13
2023-02-03T22:21:20.610Z,97461.09
2023-02-03T22:23:49.338Z,97465.97
2023-02-03T22:26:18.828Z,97459.06
2023-02-03T22:28:47.585Z,97457.97
2023-02-03T22:31:19.896Z,97476.00
2023-02-03T22:33:48.825Z,97474.75
2023-02-03T22:36:17.504Z,97473.75
2023-02-03T22:38:46.080Z,97467.03
2023-02-03T22:41:14.832Z,97477.59
2023-02-03T22:43:43.278Z,97470.13
2023-02-03T22:46:12.585Z,97467.28
2023-02-03T22:48:42.471Z,97467.38
2023-02-03T22:51:11.091Z,97461.63
2023-02-03T22:53:40.082Z,97465.97
2023-02-03T22:56:09.402Z,97457.00
2023-02-03T22:58:37.786Z,97462.41
2023-02-03T23:01:06.765Z,97456.09
2023-02-03T23:03:35.415Z,97458.81
2023-02-03T23:06:05.464Z,97450.34
2023-02-03T23:08:34.182Z,97454.19
2023-02-03T23:11:02.966Z,97446.88
2023-02-03T23:13:31.399Z,97446.28
2023-02-03T23:16:00.083Z,97450.94
2023-02-03T23:18:28.445Z,97444.28
2023-02-03T23:20:57.380Z,97439.97
2023-02-03T23:23:27.042Z,97424.25
2023-02-03T23:25:55.785Z,97438.16
2023-02-03T23:28:24.300Z,97435.50
2023-02-03T23:30:53.033Z,97433.25
2023-02-03T23:33:21.630Z,97438.22
2023-02-03T23:35:50.178Z,97429.56
2023-02-03T23:38:18.976Z,97409.59
2023-02-03T23:40:49.368Z,97416.75
2023-02-03T23:43:17.827Z,97412.06
2023-02-03T23:45:46.942Z,97407.34
2023-02-03T23:48:17.489Z,97409.34
2023-02-03T23:50:46.434Z,97413.03
2023-02-03T23:53:14.937Z,97399.22
2023-02-03T23:55:43.511Z,97403.13
2023-02-03T23:58:13.402Z,97396.50
